sensor_id;sensor_type;location;lat;lon;timestamp;temperature;humidity
6114;DHT22;3087;48.392;10.836;2023-04-16T00:01:42;9.10;99.90
6114;DHT22;3087;48.392;10.836;2023-04-16T00:04:07;9.00;99.90
6114;DHT22;3087;48.392;10.836;2023-04-16T00:06:33;9.00;99.90
6114;DHT22;3087;48.392;10.836;2023-04-16T00:08:59;9.00;99.90
6114;DHT22;3087;48.392;10.836;2023-04-16T00:11:24;9.00;99.90
6114;DHT22;3087;48.392;10.836;2023-04-16T00:13:50;8.90;99.90
6114;DHT22;3087;48.392;10.836;2023-04-16T00:16:16;8.90;99.90
6114;DHT22;3087;48.392;10.836;2023-04-16T00:18:41;8.90;99.90
6114;DHT22;3087;48.392;10.836;2023-04-16T00:21:07;10.80;99.90
6114;DHT22;3087;48.392;10.836;2023-04-16T00:23:33;8.90;99.90
6114;DHT22;3087;48.392;10.836;2023-04-16T00:25:59;11.20;99.90
6114;DHT22;3087;48.392;10.836;2023-04-16T00:28:26;8.90;99.90
6114;DHT22;3087;48.392;10.836;2023-04-16T00:30:52;8.80;99.90
6114;DHT22;3087;48.392;10.836;2023-04-16T00:33:18;11.40;99.90
6114;DHT22;3087;48.392;10.836;2023-04-16T00:35:47;7.90;99.90
6114;DHT22;3087;48.392;10.836;2023-04-16T00:38:13;8.80;99.90
6114;DHT22;3087;48.392;10.836;2023-04-16T00:40:39;8.80;99.90
6114;DHT22;3087;48.392;10.836;2023-04-16T00:43:04;7.40;99.90
6114;DHT22;3087;48.392;10.836;2023-04-16T00:45:30;10.40;99.90
6114;DHT22;3087;48.392;10.836;2023-04-16T00:47:57;8.80;99.90
6114;DHT22;3087;48.392;10.836;2023-04-16T00:50:23;8.70;99.90
6114;DHT22;3087;48.392;10.836;2023-04-16T00:52:49;8.90;99.90
6114;DHT22;3087;48.392;10.836;2023-04-16T00:55:15;8.90;99.90
6114;DHT22;3087;48.392;10.836;2023-04-16T00:57:44;8.70;99.90
6114;DHT22;3087;48.392;10.836;2023-04-16T01:00:12;8.60;99.90
6114;DHT22;3087;48.392;10.836;2023-04-16T01:02:39;8.60;99.90
6114;DHT22;3087;48.392;10.836;2023-04-16T01:05:05;8.70;99.90
6114;DHT22;3087;48.392;10.836;2023-04-16T01:07:31;8.70;99.90
6114;DHT22;3087;48.392;10.836;2023-04-16T01:09:56;8.70;99.90
6114;DHT22;3087;48.392;10.836;2023-04-16T01:12:22;8.70;99.90
6114;DHT22;3087;48.392;10.836;2023-04-16T01:14:48;8.70;99.90
6114;DHT22;3087;48.392;10.836;2023-04-16T01:17:13;8.70;99.90
6114;DHT22;3087;48.392;10.836;2023-04-16T01:19:39;8.80;99.90
6114;DHT22;3087;48.392;10.836;2023-04-16T01:22:05;9.00;99.90
6114;DHT22;3087;48.392;10.836;2023-04-16T01:24:31;8.70;99.90
6114;DHT22;3087;48.392;10.836;2023-04-16T01:26:59;8.90;99.90
6114;DHT22;3087;48.392;10.836;2023-04-16T01:29:25;8.90;99.90
6114;DHT22;3087;48.392;10.836;2023-04-16T01:31:51;8.80;99.90
6114;DHT22;3087;48.392;10.836;2023-04-16T01:34:17;8.80;99.90
6114;DHT22;3087;48.392;10.836;2023-04-16T01:36:42;8.80;99.90
6114;DHT22;3087;48.392;10.836;2023-04-16T01:39:08;8.80;99.90
6114;DHT22;3087;48.392;10.836;2023-04-16T01:41:38;8.80;99.90
6114;DHT22;3087;48.392;10.836;2023-04-16T01:44:04;9.10;99.90
6114;DHT22;3087;48.392;10.836;2023-04-16T01:46:32;8.80;99.90
6114;DHT22;3087;48.392;10.836;2023-04-16T01:48:58;8.80;99.90
6114;DHT22;3087;48.392;10.836;2023-04-16T01:51:23;8.80;99.90
6114;DHT22;3087;48.392;10.836;2023-04-16T01:53:49;8.80;99.90
6114;DHT22;3087;48.392;10.836;2023-04-16T01:56:15;9.60;99.90
6114;DHT22;3087;48.392;10.836;2023-04-16T01:58:43;9.20;99.90
6114;DHT22;3087;48.392;10.836;2023-04-16T02:01:11;9.10;99.90
6114;DHT22;3087;48.392;10.836;2023-04-16T02:03:37;10.50;99.90
6114;DHT22;3087;48.392;10.836;2023-04-16T02:06:03;9.30;99.90
6114;DHT22;3087;48.392;10.836;2023-04-16T02:08:28;8.70;99.90
6114;DHT22;3087;48.392;10.836;2023-04-16T02:10:55;8.60;99.90
6114;DHT22;3087;48.392;10.836;2023-04-16T02:13:21;8.80;99.90
6114;DHT22;3087;48.392;10.836;2023-04-16T02:15:48;9.10;99.90
6114;DHT22;3087;48.392;10.836;2023-04-16T02:18:14;8.40;99.90
6114;DHT22;3087;48.392;10.836;2023-04-16T02:20:44;8.40;99.90
6114;DHT22;3087;48.392;10.836;2023-04-16T02:23:10;8.30;99.90
6114;DHT22;3087;48.392;10.836;2023-04-16T02:25:46;8.00;99.90
6114;DHT22;3087;48.392;10.836;2023-04-16T02:28:15;7.90;99.90
6114;DHT22;3087;48.392;10.836;2023-04-16T02:30:41;7.90;99.90
6114;DHT22;3087;48.392;10.836;2023-04-16T02:33:09;7.80;99.90
6114;DHT22;3087;48.392;10.836;2023-04-16T02:35:36;7.80;99.90
6114;DHT22;3087;48.392;10.836;2023-04-16T02:38:04;7.80;99.90
6114;DHT22;3087;48.392;10.836;2023-04-16T02:40:30;7.90;99.90
6114;DHT22;3087;48.392;10.836;2023-04-16T02:42:56;8.20;99.90
6114;DHT22;3087;48.392;10.836;2023-04-16T02:45:24;8.90;99.90
6114;DHT22;3087;48.392;10.836;2023-04-16T02:47:50;7.90;99.90
6114;DHT22;3087;48.392;10.836;2023-04-16T02:50:16;8.00;99.90
6114;DHT22;3087;48.392;10.836;2023-04-16T02:52:42;8.20;99.90
6114;DHT22;3087;48.392;10.836;2023-04-16T02:55:08;8.10;99.90
6114;DHT22;3087;48.392;10.836;2023-04-16T02:57:34;8.10;99.90
6114;DHT22;3087;48.392;10.836;2023-04-16T03:00:00;8.10;99.90
6114;DHT22;3087;48.392;10.836;2023-04-16T03:02:26;8.00;99.90
6114;DHT22;3087;48.392;10.836;2023-04-16T03:04:52;8.10;99.90
6114;DHT22;3087;48.392;10.836;2023-04-16T03:07:18;8.00;99.90
6114;DHT22;3087;48.392;10.836;2023-04-16T03:09:44;8.30;99.90
6114;DHT22;3087;48.392;10.836;2023-04-16T03:12:09;8.00;99.90
6114;DHT22;3087;48.392;10.836;2023-04-16T03:14:35;8.00;99.90
6114;DHT22;3087;48.392;10.836;2023-04-16T03:17:01;8.00;99.90
6114;DHT22;3087;48.392;10.836;2023-04-16T03:19:26;8.10;99.90
6114;DHT22;3087;48.392;10.836;2023-04-16T03:21:52;8.20;99.90
6114;DHT22;3087;48.392;10.836;2023-04-16T03:24:17;8.40;99.90
6114;DHT22;3087;48.392;10.836;2023-04-16T03:26:43;8.40;99.90
6114;DHT22;3087;48.392;10.836;2023-04-16T03:29:09;8.40;99.90
6114;DHT22;3087;48.392;10.836;2023-04-16T03:31:34;8.50;99.90
6114;DHT22;3087;48.392;10.836;2023-04-16T03:34:00;8.40;99.90
6114;DHT22;3087;48.392;10.836;2023-04-16T03:36:26;8.20;99.90
6114;DHT22;3087;48.392;10.836;2023-04-16T03:38:52;8.20;99.90
6114;DHT22;3087;48.392;10.836;2023-04-16T03:41:17;8.20;99.90
6114;DHT22;3087;48.392;10.836;2023-04-16T03:43:43;8.20;99.90
6114;DHT22;3087;48.392;10.836;2023-04-16T03:46:08;8.60;99.90
6114;DHT22;3087;48.392;10.836;2023-04-16T03:48:34;8.30;99.90
6114;DHT22;3087;48.392;10.836;2023-04-16T03:51:01;9.00;99.90
6114;DHT22;3087;48.392;10.836;2023-04-16T03:53:26;8.40;99.90
6114;DHT22;3087;48.392;10.836;2023-04-16T03:55:52;8.40;99.90
6114;DHT22;3087;48.392;10.836;2023-04-16T03:58:18;8.40;99.90
6114;DHT22;3087;48.392;10.836;2023-04-16T04:00:44;8.20;99.90
6114;DHT22;3087;48.392;10.836;2023-04-16T04:03:11;8.00;99.90
6114;DHT22;3087;48.392;10.836;2023-04-16T04:05:39;8.00;99.90
6114;DHT22;3087;48.392;10.836;2023-04-16T04:08:06;7.60;99.90
6114;DHT22;3087;48.392;10.836;2023-04-16T04:10:32;7.60;99.90
6114;DHT22;3087;48.392;10.836;2023-04-16T04:12:59;7.60;99.90
6114;DHT22;3087;48.392;10.836;2023-04-16T04:15:24;7.60;99.90
6114;DHT22;3087;48.392;10.836;2023-04-16T04:17:50;7.60;99.90
6114;DHT22;3087;48.392;10.836;2023-04-16T04:20:16;7.60;99.90
6114;DHT22;3087;48.392;10.836;2023-04-16T04:22:41;7.60;99.90
6114;DHT22;3087;48.392;10.836;2023-04-16T04:25:09;7.60;99.90
6114;DHT22;3087;48.392;10.836;2023-04-16T04:27:35;7.70;99.90
6114;DHT22;3087;48.392;10.836;2023-04-16T04:30:01;7.70;99.90
6114;DHT22;3087;48.392;10.836;2023-04-16T04:32:26;7.90;99.90
6114;DHT22;3087;48.392;10.836;2023-04-16T04:34:52;7.90;99.90
6114;DHT22;3087;48.392;10.836;2023-04-16T04:37:17;7.90;99.90
6114;DHT22;3087;48.392;10.836;2023-04-16T04:39:43;7.70;99.90
6114;DHT22;3087;48.392;10.836;2023-04-16T04:42:09;7.60;99.90
6114;DHT22;3087;48.392;10.836;2023-04-16T04:44:34;7.50;99.90
6114;DHT22;3087;48.392;10.836;2023-04-16T04:47:00;7.60;99.90
6114;DHT22;3087;48.392;10.836;2023-04-16T04:49:26;7.70;99.90
6114;DHT22;3087;48.392;10.836;2023-04-16T04:51:51;7.90;99.90
6114;DHT22;3087;48.392;10.836;2023-04-16T04:54:17;8.00;99.90
6114;DHT22;3087;48.392;10.836;2023-04-16T04:56:43;8.10;99.90
6114;DHT22;3087;48.392;10.836;2023-04-16T04:59:10;8.10;99.90
6114;DHT22;3087;48.392;10.836;2023-04-16T05:01:37;8.20;99.90
6114;DHT22;3087;48.392;10.836;2023-04-16T05:04:02;8.20;99.90
6114;DHT22;3087;48.392;10.836;2023-04-16T05:06:28;8.10;99.90
6114;DHT22;3087;48.392;10.836;2023-04-16T05:08:54;8.00;99.90
6114;DHT22;3087;48.392;10.836;2023-04-16T05:11:20;7.80;99.90
6114;DHT22;3087;48.392;10.836;2023-04-16T05:13:45;7.80;99.90
6114;DHT22;3087;48.392;10.836;2023-04-16T05:16:11;7.80;99.90
6114;DHT22;3087;48.392;10.836;2023-04-16T05:18:37;7.80;99.90
6114;DHT22;3087;48.392;10.836;2023-04-16T05:21:02;7.70;99.90
6114;DHT22;3087;48.392;10.836;2023-04-16T05:23:28;7.70;99.90
6114;DHT22;3087;48.392;10.836;2023-04-16T05:25:54;7.70;99.90
6114;DHT22;3087;48.392;10.836;2023-04-16T05:28:19;7.60;99.90
6114;DHT22;3087;48.392;10.836;2023-04-16T05:30:45;7.70;99.90
6114;DHT22;3087;48.392;10.836;2023-04-16T05:33:11;7.70;99.90
6114;DHT22;3087;48.392;10.836;2023-04-16T05:35:36;7.60;99.90
6114;DHT22;3087;48.392;10.836;2023-04-16T05:38:02;7.50;99.90
6114;DHT22;3087;48.392;10.836;2023-04-16T05:40:30;7.50;99.90
6114;DHT22;3087;48.392;10.836;2023-04-16T05:42:55;8.50;99.90
6114;DHT22;3087;48.392;10.836;2023-04-16T05:45:21;7.40;99.90
6114;DHT22;3087;48.392;10.836;2023-04-16T05:47:48;7.40;99.90
6114;DHT22;3087;48.392;10.836;2023-04-16T05:50:14;7.40;99.90
6114;DHT22;3087;48.392;10.836;2023-04-16T05:52:40;7.40;99.90
6114;DHT22;3087;48.392;10.836;2023-04-16T05:55:05;7.30;99.90
6114;DHT22;3087;48.392;10.836;2023-04-16T05:57:32;7.20;99.90
6114;DHT22;3087;48.392;10.836;2023-04-16T05:59:58;7.20;99.90
6114;DHT22;3087;48.392;10.836;2023-04-16T06:02:23;7.30;99.90
6114;DHT22;3087;48.392;10.836;2023-04-16T06:04:49;7.30;99.90
6114;DHT22;3087;48.392;10.836;2023-04-16T06:07:14;7.20;99.90
6114;DHT22;3087;48.392;10.836;2023-04-16T06:09:40;7.20;99.90
6114;DHT22;3087;48.392;10.836;2023-04-16T06:12:06;7.30;99.90
6114;DHT22;3087;48.392;10.836;2023-04-16T06:14:32;7.40;99.90
6114;DHT22;3087;48.392;10.836;2023-04-16T06:17:00;7.40;99.90
6114;DHT22;3087;48.392;10.836;2023-04-16T06:19:26;7.40;99.90
6114;DHT22;3087;48.392;10.836;2023-04-16T06:21:52;7.50;99.90
6114;DHT22;3087;48.392;10.836;2023-04-16T06:24:18;7.50;99.90
6114;DHT22;3087;48.392;10.836;2023-04-16T06:26:43;7.50;99.90
6114;DHT22;3087;48.392;10.836;2023-04-16T06:29:09;7.80;99.90
6114;DHT22;3087;48.392;10.836;2023-04-16T06:31:36;7.50;99.90
6114;DHT22;3087;48.392;10.836;2023-04-16T06:34:01;7.70;99.90
6114;DHT22;3087;48.392;10.836;2023-04-16T06:36:27;7.60;99.90
6114;DHT22;3087;48.392;10.836;2023-04-16T06:38:53;7.60;99.90
6114;DHT22;3087;48.392;10.836;2023-04-16T06:41:19;7.70;99.90
6114;DHT22;3087;48.392;10.836;2023-04-16T06:43:46;7.70;99.90
6114;DHT22;3087;48.392;10.836;2023-04-16T06:46:12;7.70;99.90
6114;DHT22;3087;48.392;10.836;2023-04-16T06:48:38;7.70;99.90
6114;DHT22;3087;48.392;10.836;2023-04-16T06:51:03;7.80;99.90
6114;DHT22;3087;48.392;10.836;2023-04-16T06:53:29;8.00;99.90
6114;DHT22;3087;48.392;10.836;2023-04-16T06:55:55;7.70;99.90
6114;DHT22;3087;48.392;10.836;2023-04-16T06:58:21;8.50;99.90
6114;DHT22;3087;48.392;10.836;2023-04-16T07:00:46;7.70;99.90
6114;DHT22;3087;48.392;10.836;2023-04-16T07:03:12;7.70;99.90
6114;DHT22;3087;48.392;10.836;2023-04-16T07:05:38;8.20;99.90
6114;DHT22;3087;48.392;10.836;2023-04-16T07:08:04;7.90;99.90
6114;DHT22;3087;48.392;10.836;2023-04-16T07:10:30;7.90;99.90
6114;DHT22;3087;48.392;10.836;2023-04-16T07:12:55;8.20;99.90
6114;DHT22;3087;48.392;10.836;2023-04-16T07:15:21;8.10;99.90
6114;DHT22;3087;48.392;10.836;2023-04-16T07:17:47;8.00;99.90
6114;DHT22;3087;48.392;10.836;2023-04-16T07:20:12;8.00;99.90
6114;DHT22;3087;48.392;10.836;2023-04-16T07:22:38;8.40;99.90
6114;DHT22;3087;48.392;10.836;2023-04-16T07:25:04;8.40;99.90
6114;DHT22;3087;48.392;10.836;2023-04-16T07:27:30;8.20;99.90
6114;DHT22;3087;48.392;10.836;2023-04-16T07:29:55;8.20;99.90
6114;DHT22;3087;48.392;10.836;2023-04-16T07:32:21;8.10;99.90
6114;DHT22;3087;48.392;10.836;2023-04-16T07:34:47;8.20;99.90
6114;DHT22;3087;48.392;10.836;2023-04-16T07:37:12;8.20;99.90
6114;DHT22;3087;48.392;10.836;2023-04-16T07:39:38;8.30;99.90
6114;DHT22;3087;48.392;10.836;2023-04-16T07:42:04;8.20;99.90
6114;DHT22;3087;48.392;10.836;2023-04-16T07:44:30;8.30;99.90
6114;DHT22;3087;48.392;10.836;2023-04-16T07:46:56;8.40;99.90
6114;DHT22;3087;48.392;10.836;2023-04-16T07:49:21;8.50;99.90
6114;DHT22;3087;48.392;10.836;2023-04-16T07:51:47;8.50;99.90
6114;DHT22;3087;48.392;10.836;2023-04-16T07:54:13;8.50;99.90
6114;DHT22;3087;48.392;10.836;2023-04-16T07:56:38;8.40;99.90
6114;DHT22;3087;48.392;10.836;2023-04-16T07:59:04;8.50;99.90
6114;DHT22;3087;48.392;10.836;2023-04-16T08:01:29;8.50;99.90
6114;DHT22;3087;48.392;10.836;2023-04-16T08:03:56;8.20;99.90
6114;DHT22;3087;48.392;10.836;2023-04-16T08:06:21;8.80;99.90
6114;DHT22;3087;48.392;10.836;2023-04-16T08:08:47;8.60;99.90
6114;DHT22;3087;48.392;10.836;2023-04-16T08:11:12;8.70;99.90
6114;DHT22;3087;48.392;10.836;2023-04-16T08:13:39;8.60;99.90
6114;DHT22;3087;48.392;10.836;2023-04-16T08:16:05;8.60;99.90
6114;DHT22;3087;48.392;10.836;2023-04-16T08:18:31;8.70;99.90
6114;DHT22;3087;48.392;10.836;2023-04-16T08:20:57;8.80;99.90
6114;DHT22;3087;48.392;10.836;2023-04-16T08:23:22;8.80;99.90
6114;DHT22;3087;48.392;10.836;2023-04-16T08:25:48;8.80;99.90
6114;DHT22;3087;48.392;10.836;2023-04-16T08:28:14;9.00;99.90
6114;DHT22;3087;48.392;10.836;2023-04-16T08:30:40;9.60;99.90
6114;DHT22;3087;48.392;10.836;2023-04-16T08:33:05;9.20;99.90
6114;DHT22;3087;48.392;10.836;2023-04-16T08:35:31;9.30;99.90
6114;DHT22;3087;48.392;10.836;2023-04-16T08:37:56;10.60;99.90
6114;DHT22;3087;48.392;10.836;2023-04-16T08:40:25;9.30;99.90
6114;DHT22;3087;48.392;10.836;2023-04-16T08:42:54;9.40;99.90
6114;DHT22;3087;48.392;10.836;2023-04-16T08:45:20;9.20;99.90
6114;DHT22;3087;48.392;10.836;2023-04-16T08:47:49;9.20;99.90
6114;DHT22;3087;48.392;10.836;2023-04-16T08:50:17;9.30;99.90
6114;DHT22;3087;48.392;10.836;2023-04-16T08:52:48;9.50;99.90
6114;DHT22;3087;48.392;10.836;2023-04-16T08:55:18;9.80;99.90
6114;DHT22;3087;48.392;10.836;2023-04-16T08:57:57;10.10;99.90
6114;DHT22;3087;48.392;10.836;2023-04-16T09:00:23;10.00;99.90
6114;DHT22;3087;48.392;10.836;2023-04-16T09:02:49;10.40;99.90
6114;DHT22;3087;48.392;10.836;2023-04-16T09:05:16;10.10;99.90
6114;DHT22;3087;48.392;10.836;2023-04-16T09:07:44;10.10;99.90
6114;DHT22;3087;48.392;10.836;2023-04-16T09:10:11;9.90;99.90
6114;DHT22;3087;48.392;10.836;2023-04-16T09:12:38;9.90;99.90
6114;DHT22;3087;48.392;10.836;2023-04-16T09:15:05;9.90;99.90
6114;DHT22;3087;48.392;10.836;2023-04-16T09:17:31;10.00;99.90
6114;DHT22;3087;48.392;10.836;2023-04-16T09:19:56;9.90;99.90
6114;DHT22;3087;48.392;10.836;2023-04-16T09:22:22;9.80;99.90
6114;DHT22;3087;48.392;10.836;2023-04-16T09:24:47;10.20;99.90
6114;DHT22;3087;48.392;10.836;2023-04-16T09:27:13;10.00;99.90
6114;DHT22;3087;48.392;10.836;2023-04-16T09:29:39;9.70;99.90
6114;DHT22;3087;48.392;10.836;2023-04-16T09:32:07;9.70;99.90
6114;DHT22;3087;48.392;10.836;2023-04-16T09:34:34;9.70;99.90
6114;DHT22;3087;48.392;10.836;2023-04-16T09:37:16;9.80;99.90
6114;DHT22;3087;48.392;10.836;2023-04-16T09:39:43;9.80;99.90
6114;DHT22;3087;48.392;10.836;2023-04-16T09:42:09;9.90;99.90
6114;DHT22;3087;48.392;10.836;2023-04-16T09:44:35;10.00;99.90
6114;DHT22;3087;48.392;10.836;2023-04-16T09:47:08;10.20;99.90
6114;DHT22;3087;48.392;10.836;2023-04-16T09:49:34;10.20;99.90
6114;DHT22;3087;48.392;10.836;2023-04-16T09:52:15;10.40;99.90
6114;DHT22;3087;48.392;10.836;2023-04-16T09:54:50;10.50;99.90
6114;DHT22;3087;48.392;10.836;2023-04-16T09:57:23;10.70;99.90
6114;DHT22;3087;48.392;10.836;2023-04-16T09:59:53;10.80;99.90
6114;DHT22;3087;48.392;10.836;2023-04-16T10:02:26;10.40;99.90
6114;DHT22;3087;48.392;10.836;2023-04-16T10:04:53;10.40;99.90
6114;DHT22;3087;48.392;10.836;2023-04-16T10:07:20;10.50;99.90
6114;DHT22;3087;48.392;10.836;2023-04-16T10:09:46;10.40;99.90
6114;DHT22;3087;48.392;10.836;2023-04-16T10:12:16;10.50;99.90
6114;DHT22;3087;48.392;10.836;2023-04-16T10:14:42;10.40;99.90
6114;DHT22;3087;48.392;10.836;2023-04-16T10:17:08;10.70;99.90
6114;DHT22;3087;48.392;10.836;2023-04-16T10:19:34;10.50;99.90
6114;DHT22;3087;48.392;10.836;2023-04-16T10:22:02;10.50;99.90
6114;DHT22;3087;48.392;10.836;2023-04-16T10:24:32;10.40;99.90
6114;DHT22;3087;48.392;10.836;2023-04-16T10:26:59;10.50;99.90
6114;DHT22;3087;48.392;10.836;2023-04-16T10:29:26;10.70;99.90
6114;DHT22;3087;48.392;10.836;2023-04-16T10:31:54;10.90;99.90
6114;DHT22;3087;48.392;10.836;2023-04-16T10:34:20;11.00;99.90
6114;DHT22;3087;48.392;10.836;2023-04-16T10:36:53;13.40;99.90
6114;DHT22;3087;48.392;10.836;2023-04-16T10:39:23;11.10;99.90
6114;DHT22;3087;48.392;10.836;2023-04-16T10:41:50;11.10;99.90
6114;DHT22;3087;48.392;10.836;2023-04-16T10:44:32;11.20;99.90
6114;DHT22;3087;48.392;10.836;2023-04-16T10:46:58;10.90;99.90
6114;DHT22;3087;48.392;10.836;2023-04-16T10:49:25;10.90;99.90
6114;DHT22;3087;48.392;10.836;2023-04-16T10:52:06;10.90;99.90
6114;DHT22;3087;48.392;10.836;2023-04-16T10:54:34;11.00;99.90
6114;DHT22;3087;48.392;10.836;2023-04-16T10:57:03;11.10;99.90
6114;DHT22;3087;48.392;10.836;2023-04-16T10:59:34;11.30;99.90
6114;DHT22;3087;48.392;10.836;2023-04-16T11:02:06;11.30;99.90
6114;DHT22;3087;48.392;10.836;2023-04-16T11:04:36;11.20;99.90
6114;DHT22;3087;48.392;10.836;2023-04-16T11:12:23;11.40;99.90
6114;DHT22;3087;48.392;10.836;2023-04-16T11:15:02;11.50;99.90
6114;DHT22;3087;48.392;10.836;2023-04-16T11:17:40;11.70;99.90
6114;DHT22;3087;48.392;10.836;2023-04-16T11:20:14;11.80;99.90
6114;DHT22;3087;48.392;10.836;2023-04-16T11:22:41;11.80;99.90
6114;DHT22;3087;48.392;10.836;2023-04-16T11:25:07;11.80;99.90
6114;DHT22;3087;48.392;10.836;2023-04-16T11:27:32;11.80;99.90
6114;DHT22;3087;48.392;10.836;2023-04-16T11:29:59;11.80;99.90
6114;DHT22;3087;48.392;10.836;2023-04-16T11:32:25;11.60;99.90
6114;DHT22;3087;48.392;10.836;2023-04-16T11:34:51;11.60;99.90
6114;DHT22;3087;48.392;10.836;2023-04-16T11:37:35;11.60;99.90
6114;DHT22;3087;48.392;10.836;2023-04-16T11:40:05;11.70;99.90
6114;DHT22;3087;48.392;10.836;2023-04-16T11:42:33;11.80;99.90
6114;DHT22;3087;48.392;10.836;2023-04-16T11:45:02;11.80;99.90
6114;DHT22;3087;48.392;10.836;2023-04-16T11:47:29;11.80;99.90
6114;DHT22;3087;48.392;10.836;2023-04-16T11:49:56;11.80;99.90
6114;DHT22;3087;48.392;10.836;2023-04-16T11:52:30;11.80;99.90
6114;DHT22;3087;48.392;10.836;2023-04-16T11:54:57;11.80;99.90
6114;DHT22;3087;48.392;10.836;2023-04-16T11:57:28;11.90;99.90
6114;DHT22;3087;48.392;10.836;2023-04-16T11:59:55;12.00;99.90
6114;DHT22;3087;48.392;10.836;2023-04-16T12:02:43;12.00;99.90
6114;DHT22;3087;48.392;10.836;2023-04-16T12:07:57;12.10;99.90
6114;DHT22;3087;48.392;10.836;2023-04-16T12:10:23;12.30;99.90
6114;DHT22;3087;48.392;10.836;2023-04-16T12:12:49;12.40;99.90
6114;DHT22;3087;48.392;10.836;2023-04-16T12:15:15;12.50;99.90
6114;DHT22;3087;48.392;10.836;2023-04-16T12:17:41;12.60;99.90
6114;DHT22;3087;48.392;10.836;2023-04-16T12:20:14;12.60;99.90
6114;DHT22;3087;48.392;10.836;2023-04-16T12:22:45;12.60;99.90
6114;DHT22;3087;48.392;10.836;2023-04-16T12:25:13;12.60;99.90
6114;DHT22;3087;48.392;10.836;2023-04-16T12:27:42;12.60;99.90
6114;DHT22;3087;48.392;10.836;2023-04-16T12:30:10;12.60;99.90
6114;DHT22;3087;48.392;10.836;2023-04-16T12:32:35;12.80;99.90
6114;DHT22;3087;48.392;10.836;2023-04-16T12:35:01;12.90;99.90
6114;DHT22;3087;48.392;10.836;2023-04-16T12:37:27;13.00;99.90
6114;DHT22;3087;48.392;10.836;2023-04-16T12:39:53;13.10;99.90
6114;DHT22;3087;48.392;10.836;2023-04-16T12:42:19;13.30;99.90
6114;DHT22;3087;48.392;10.836;2023-04-16T12:44:44;13.40;99.90
6114;DHT22;3087;48.392;10.836;2023-04-16T12:47:11;13.50;99.90
6114;DHT22;3087;48.392;10.836;2023-04-16T12:49:36;13.60;99.90
6114;DHT22;3087;48.392;10.836;2023-04-16T12:52:02;13.50;99.90
6114;DHT22;3087;48.392;10.836;2023-04-16T12:54:28;13.60;99.90
6114;DHT22;3087;48.392;10.836;2023-04-16T12:56:55;13.40;99.90
6114;DHT22;3087;48.392;10.836;2023-04-16T12:59:22;13.40;99.90
6114;DHT22;3087;48.392;10.836;2023-04-16T13:01:48;13.40;99.90
6114;DHT22;3087;48.392;10.836;2023-04-16T13:04:14;13.50;99.90
6114;DHT22;3087;48.392;10.836;2023-04-16T13:06:39;13.60;99.90
6114;DHT22;3087;48.392;10.836;2023-04-16T13:09:05;13.60;99.90
6114;DHT22;3087;48.392;10.836;2023-04-16T13:11:31;13.50;99.90
6114;DHT22;3087;48.392;10.836;2023-04-16T13:13:57;13.40;99.90
6114;DHT22;3087;48.392;10.836;2023-04-16T13:16:23;13.30;99.90
6114;DHT22;3087;48.392;10.836;2023-04-16T13:18:49;13.20;99.90
6114;DHT22;3087;48.392;10.836;2023-04-16T13:21:16;13.20;99.90
6114;DHT22;3087;48.392;10.836;2023-04-16T13:23:42;13.10;99.90
6114;DHT22;3087;48.392;10.836;2023-04-16T13:26:07;12.90;99.90
6114;DHT22;3087;48.392;10.836;2023-04-16T13:28:33;12.90;99.90
6114;DHT22;3087;48.392;10.836;2023-04-16T13:30:59;12.80;99.90
6114;DHT22;3087;48.392;10.836;2023-04-16T13:33:25;12.70;99.90
6114;DHT22;3087;48.392;10.836;2023-04-16T13:35:51;12.70;99.90
6114;DHT22;3087;48.392;10.836;2023-04-16T13:38:16;12.60;99.90
6114;DHT22;3087;48.392;10.836;2023-04-16T13:40:42;12.40;99.90
6114;DHT22;3087;48.392;10.836;2023-04-16T13:43:08;12.30;99.90
6114;DHT22;3087;48.392;10.836;2023-04-16T13:45:34;12.30;99.90
6114;DHT22;3087;48.392;10.836;2023-04-16T13:48:00;12.20;99.90
6114;DHT22;3087;48.392;10.836;2023-04-16T13:50:26;12.20;99.90
6114;DHT22;3087;48.392;10.836;2023-04-16T13:52:52;12.00;99.90
6114;DHT22;3087;48.392;10.836;2023-04-16T13:55:17;12.00;99.90
6114;DHT22;3087;48.392;10.836;2023-04-16T13:57:45;11.90;99.90
6114;DHT22;3087;48.392;10.836;2023-04-16T14:00:12;12.20;99.90
6114;DHT22;3087;48.392;10.836;2023-04-16T14:02:38;11.70;99.90
6114;DHT22;3087;48.392;10.836;2023-04-16T14:05:04;11.70;99.90
6114;DHT22;3087;48.392;10.836;2023-04-16T14:07:31;11.70;99.90
6114;DHT22;3087;48.392;10.836;2023-04-16T14:09:57;11.70;99.90
6114;DHT22;3087;48.392;10.836;2023-04-16T14:12:22;12.00;99.90
6114;DHT22;3087;48.392;10.836;2023-04-16T14:14:48;11.80;99.90
6114;DHT22;3087;48.392;10.836;2023-04-16T14:17:14;11.90;99.90
6114;DHT22;3087;48.392;10.836;2023-04-16T14:19:39;11.90;99.90
6114;DHT22;3087;48.392;10.836;2023-04-16T14:22:06;11.80;99.90
6114;DHT22;3087;48.392;10.836;2023-04-16T14:24:32;12.00;99.90
6114;DHT22;3087;48.392;10.836;2023-04-16T14:26:57;12.00;99.90
6114;DHT22;3087;48.392;10.836;2023-04-16T14:29:23;12.00;99.90
6114;DHT22;3087;48.392;10.836;2023-04-16T14:31:48;12.10;99.90
6114;DHT22;3087;48.392;10.836;2023-04-16T14:34:14;12.00;99.90
6114;DHT22;3087;48.392;10.836;2023-04-16T14:36:41;12.10;99.90
6114;DHT22;3087;48.392;10.836;2023-04-16T14:39:07;12.50;99.90
6114;DHT22;3087;48.392;10.836;2023-04-16T14:41:32;12.00;99.90
6114;DHT22;3087;48.392;10.836;2023-04-16T14:43:58;11.80;99.90
6114;DHT22;3087;48.392;10.836;2023-04-16T14:46:24;11.80;99.90
6114;DHT22;3087;48.392;10.836;2023-04-16T14:48:51;11.80;99.90
6114;DHT22;3087;48.392;10.836;2023-04-16T14:51:17;11.80;99.90
6114;DHT22;3087;48.392;10.836;2023-04-16T14:53:43;11.90;99.90
6114;DHT22;3087;48.392;10.836;2023-04-16T14:56:09;11.20;99.90
6114;DHT22;3087;48.392;10.836;2023-04-16T14:58:35;11.70;99.90
6114;DHT22;3087;48.392;10.836;2023-04-16T15:01:02;11.40;99.90
6114;DHT22;3087;48.392;10.836;2023-04-16T15:03:29;11.70;99.90
6114;DHT22;3087;48.392;10.836;2023-04-16T15:05:56;11.50;99.90
6114;DHT22;3087;48.392;10.836;2023-04-16T15:08:22;11.70;99.90
6114;DHT22;3087;48.392;10.836;2023-04-16T15:10:48;11.30;99.90
6114;DHT22;3087;48.392;10.836;2023-04-16T15:13:13;11.60;99.90
6114;DHT22;3087;48.392;10.836;2023-04-16T15:15:39;11.40;99.90
6114;DHT22;3087;48.392;10.836;2023-04-16T15:18:05;11.40;99.90
6114;DHT22;3087;48.392;10.836;2023-04-16T15:20:31;11.40;99.90
6114;DHT22;3087;48.392;10.836;2023-04-16T15:22:57;11.30;99.90
6114;DHT22;3087;48.392;10.836;2023-04-16T15:25:22;11.40;99.90
6114;DHT22;3087;48.392;10.836;2023-04-16T15:27:50;11.40;99.90
6114;DHT22;3087;48.392;10.836;2023-04-16T15:30:15;11.50;99.90
6114;DHT22;3087;48.392;10.836;2023-04-16T15:32:44;11.60;99.90
6114;DHT22;3087;48.392;10.836;2023-04-16T15:35:10;11.70;99.90
6114;DHT22;3087;48.392;10.836;2023-04-16T15:37:36;11.70;99.90
6114;DHT22;3087;48.392;10.836;2023-04-16T15:40:03;11.90;99.90
6114;DHT22;3087;48.392;10.836;2023-04-16T15:42:35;11.80;99.90
6114;DHT22;3087;48.392;10.836;2023-04-16T15:45:01;11.90;99.90
6114;DHT22;3087;48.392;10.836;2023-04-16T15:47:26;11.90;99.90
6114;DHT22;3087;48.392;10.836;2023-04-16T15:49:52;12.00;99.90
6114;DHT22;3087;48.392;10.836;2023-04-16T15:52:17;12.00;99.90
6114;DHT22;3087;48.392;10.836;2023-04-16T15:54:44;12.00;99.90
6114;DHT22;3087;48.392;10.836;2023-04-16T15:57:10;12.00;99.90
6114;DHT22;3087;48.392;10.836;2023-04-16T15:59:35;11.90;99.90